Time;durP1;ratioP1;P1;durP2;ratioP2;P2;SDS_P1;SDS_P2;PMS_P1;PMS_P2;Temp;Humidity;BMP_temperature;BMP_pressure;BME280_temperature;BME280_humidity;BME280_pressure;Samples;Min_cycle;Max_cycle;Signal;HPM_P1;HPM_P2
2021/03/04 00:01:43;;;;;;;18.65;12.18;;;;;;;-1.92;81.03;101003.16;1775759;79;21870;-70
2021/03/04 00:04:11;;;;;;;21.20;12.25;;;;;;;-1.94;81.08;100998.10;1807551;77;21090;-70
2021/03/04 00:06:39;;;;;;;18.77;12.25;;;;;;;-1.93;81.15;100990.56;1794713;79;21144;-70
2021/03/04 00:09:06;;;;;;;18.10;11.65;;;;;;;-1.93;81.29;100985.83;1786518;79;21110;-71
2021/03/04 00:11:35;;;;;;;18.98;12.00;;;;;;;-1.94;81.29;100981.55;1813794;79;21061;-71
2021/03/04 00:14:02;;;;;;;18.50;11.43;;;;;;;-1.93;81.36;100973.55;1809659;79;21467;-70
2021/03/04 00:16:30;;;;;;;20.40;12.07;;;;;;;-1.92;81.41;100971.25;1796681;79;21214;-70
2021/03/04 00:18:58;;;;;;;20.15;12.55;;;;;;;-1.92;81.51;100962.58;1810706;79;21163;-70
2021/03/04 00:21:25;;;;;;;18.00;11.35;;;;;;;-1.94;81.59;100967.16;1796723;77;21079;-71
2021/03/04 00:23:53;;;;;;;22.05;12.65;;;;;;;-1.94;81.71;100956.69;1799438;77;21214;-71
2021/03/04 00:26:21;;;;;;;19.25;11.88;;;;;;;-1.94;81.83;100959.30;1804661;79;21369;-72
2021/03/04 00:28:49;;;;;;;20.77;12.47;;;;;;;-1.92;81.96;100957.34;1795385;79;21075;-71
2021/03/04 00:31:16;;;;;;;19.87;12.00;;;;;;;-1.89;82.04;100949.16;1796989;79;21464;-70
2021/03/04 00:33:44;;;;;;;20.27;12.63;;;;;;;-1.86;82.10;100946.72;1798905;79;21476;-71
2021/03/04 00:36:12;;;;;;;19.40;12.88;;;;;;;-1.86;82.17;100937.05;1797860;77;21639;-70
2021/03/04 00:38:39;;;;;;;20.08;13.05;;;;;;;-1.87;82.25;100938.05;1786816;79;21568;-71
2021/03/04 00:41:07;;;;;;;21.82;13.20;;;;;;;-1.85;82.40;100936.06;1797439;79;21075;-72
2021/03/04 00:43:34;;;;;;;20.45;12.68;;;;;;;-1.84;82.54;100932.48;1801533;77;21354;-71
2021/03/04 00:46:02;;;;;;;23.22;13.15;;;;;;;-1.84;82.65;100931.64;1807409;77;21131;-71
2021/03/04 00:48:30;;;;;;;22.52;13.78;;;;;;;-1.84;82.80;100935.09;1807042;78;21155;-71
2021/03/04 00:50:58;;;;;;;24.50;13.80;;;;;;;-1.85;82.93;100926.90;1799384;79;22313;-70
2021/03/04 00:53:26;;;;;;;22.82;12.60;;;;;;;-1.82;83.07;100923.95;1797290;79;21595;-72
2021/03/04 00:55:54;;;;;;;21.30;13.13;;;;;;;-1.78;83.22;100922.63;1797008;77;21555;-71
2021/03/04 00:58:21;;;;;;;26.20;13.95;;;;;;;-1.74;83.46;100913.47;1791830;79;21166;-70
2021/03/04 01:00:49;;;;;;;21.90;13.13;;;;;;;-1.66;83.69;100902.95;1804072;79;21109;-71
2021/03/04 01:03:16;;;;;;;22.13;13.38;;;;;;;-1.57;83.96;100899.84;1805898;79;21806;-71
2021/03/04 01:05:44;;;;;;;21.20;13.05;;;;;;;-1.48;84.35;100900.13;1794587;77;22167;-71
2021/03/04 01:08:13;;;;;;;26.02;14.38;;;;;;;-1.37;84.61;100902.87;1801525;79;21246;-71
2021/03/04 01:10:41;;;;;;;25.00;14.33;;;;;;;-1.34;84.84;100899.91;1799602;77;21151;-71
2021/03/04 01:13:09;;;;;;;26.95;17.10;;;;;;;-1.31;85.00;100896.14;1803079;79;21047;-71
2021/03/04 01:15:37;;;;;;;25.55;15.00;;;;;;;-1.30;85.17;100882.85;1795464;77;22897;-71
2021/03/04 01:18:06;;;;;;;26.73;15.70;;;;;;;-1.28;85.36;100887.44;1801469;77;21607;-72
2021/03/04 01:20:34;;;;;;;27.85;16.02;;;;;;;-1.25;85.47;100882.33;1812049;79;21123;-71
2021/03/04 01:23:02;;;;;;;30.95;16.32;;;;;;;-1.25;85.54;100880.55;1811566;79;21210;-71
2021/03/04 01:25:30;;;;;;;28.83;16.07;;;;;;;-1.22;85.59;100865.80;1804756;77;21375;-73
2021/03/04 01:27:58;;;;;;;30.97;17.62;;;;;;;-1.20;85.67;100861.17;1799199;77;21455;-71
2021/03/04 01:30:29;;;;;;;29.25;16.07;;;;;;;-1.19;85.75;100856.25;1793189;79;21654;-71
2021/03/04 01:32:59;;;;;;;29.70;16.82;;;;;;;-1.15;85.87;100857.22;1785517;79;21695;-72
2021/03/04 01:35:27;;;;;;;25.97;14.47;;;;;;;-1.13;85.99;100865.73;1789163;79;21130;-70
2021/03/04 01:37:56;;;;;;;30.48;17.30;;;;;;;-1.15;86.04;100853.28;1801016;79;21059;-70
2021/03/04 01:40:23;;;;;;;29.35;16.05;;;;;;;-1.11;86.10;100850.66;1815180;79;22083;-71
2021/03/04 01:42:51;;;;;;;28.15;15.08;;;;;;;-1.11;86.16;100848.85;1797311;79;21139;-71
2021/03/04 01:45:19;;;;;;;29.50;17.65;;;;;;;-1.08;86.21;100851.63;1793802;79;21167;-71
2021/03/04 01:47:53;;;;;;;33.25;18.90;;;;;;;-1.07;86.23;100840.14;1798800;77;21172;-71
2021/03/04 01:50:22;;;;;;;31.10;17.17;;;;;;;-1.06;86.31;100837.33;1793620;79;21127;-71
2021/03/04 01:52:50;;;;;;;35.48;19.10;;;;;;;-1.05;86.39;100834.24;1797301;78;21368;-70
2021/03/04 01:55:19;;;;;;;29.05;16.62;;;;;;;-1.06;86.42;100832.09;1811816;79;21194;-71
2021/03/04 01:57:47;;;;;;;31.05;17.40;;;;;;;-1.03;86.49;100825.19;1802845;77;21182;-72
2021/03/04 02:00:19;;;;;;;29.63;16.73;;;;;;;-1.00;86.51;100826.66;1806705;79;21456;-72
2021/03/04 02:02:47;;;;;;;32.08;17.80;;;;;;;-0.95;86.56;100829.08;1812091;79;21475;-72
2021/03/04 02:05:17;;;;;;;35.13;18.98;;;;;;;-0.91;86.57;100816.44;1810269;79;22283;-71
2021/03/04 02:07:59;;;;;;;33.70;18.37;;;;;;;-0.92;86.58;100812.19;1796042;77;21227;-71
2021/03/04 02:11:04;;;;;;;34.73;17.67;;;;;;;-0.92;86.64;100808.26;1803386;79;21591;-72
2021/03/04 02:13:45;;;;;;;32.50;18.30;;;;;;;-0.92;86.67;100804.80;1803070;79;21127;-71
2021/03/04 02:16:29;;;;;;;33.75;18.73;;;;;;;-0.92;86.77;100793.84;1788403;79;21130;-71
2021/03/04 02:19:01;;;;;;;37.13;19.32;;;;;;;-0.90;86.83;100796.27;1799442;79;21820;-71
2021/03/04 02:21:40;;;;;;;37.20;19.23;;;;;;;-0.88;86.89;100791.17;1787889;79;21126;-71
2021/03/04 02:24:33;;;;;;;36.40;17.52;;;;;;;-0.89;87.04;100788.72;1785744;79;21040;-71
2021/03/04 02:27:08;;;;;;;34.73;18.55;;;;;;;-0.93;87.23;100778.27;1798037;79;21119;-71
2021/03/04 02:29:48;;;;;;;39.78;19.37;;;;;;;-0.93;87.33;100774.33;1800742;77;21630;-71
2021/03/04 02:32:24;;;;;;;39.98;19.37;;;;;;;-0.93;87.55;100769.90;1806029;79;21812;-71
2021/03/04 02:35:06;;;;;;;37.17;17.95;;;;;;;-0.90;87.65;100757.75;1791311;79;21561;-70
2021/03/04 02:37:36;;;;;;;;;;;;;;;-0.88;87.76;100759.71;1793830;79;21726;-70
2021/03/04 02:40:06;;;;;;;41.53;19.62;;;;;;;-0.87;87.90;100748.22;1807945;79;20984;-71
2021/03/04 02:42:34;;;;;;;35.17;17.90;;;;;;;-0.84;87.98;100748.37;1780681;79;21166;-71
2021/03/04 02:45:01;;;;;;;42.23;21.42;;;;;;;-0.83;88.05;100742.13;1797277;79;21203;-70
2021/03/04 02:47:30;;;;;;;38.35;18.67;;;;;;;-0.82;88.10;100738.02;1786720;79;21141;-70
2021/03/04 02:49:59;;;;;;;40.55;20.37;;;;;;;-0.78;88.19;100733.23;1772449;79;21043;-70
2021/03/04 02:52:27;;;;;;;41.68;21.87;;;;;;;-0.74;88.33;100729.26;1791582;79;21118;-70
2021/03/04 02:54:54;;;;;;;41.98;19.37;;;;;;;-0.74;88.34;100725.33;1798888;79;21202;-72
2021/03/04 02:57:22;;;;;;;41.80;20.23;;;;;;;-0.69;88.42;100725.62;1787456;79;21212;-70
2021/03/04 02:59:50;;;;;;;39.83;19.42;;;;;;;-0.69;88.45;100717.75;1780527;79;21500;-71
2021/03/04 03:02:17;;;;;;;41.42;20.10;;;;;;;-0.66;88.52;100710.80;1785363;79;21159;-70
2021/03/04 03:04:45;;;;;;;47.40;22.85;;;;;;;-0.61;88.54;100710.28;1806739;79;21150;-70
2021/03/04 03:07:14;;;;;;;47.78;23.02;;;;;;;-0.58;88.57;100702.05;1801915;79;21048;-70
2021/03/04 03:09:44;;;;;;;47.08;23.52;;;;;;;-0.55;88.64;100696.45;1801521;77;22075;-70
2021/03/04 03:12:13;;;;;;;40.12;19.67;;;;;;;-0.49;88.68;100697.86;1806862;77;21186;-70
2021/03/04 03:14:41;;;;;;;47.33;23.02;;;;;;;-0.45;88.66;100685.19;1802468;79;21123;-70
2021/03/04 03:17:09;;;;;;;36.68;18.27;;;;;;;-0.41;88.69;100681.70;1788878;79;21643;-70
2021/03/04 03:19:39;;;;;;;48.15;22.22;;;;;;;-0.37;88.71;100673.27;1794352;79;21474;-70
2021/03/04 03:22:07;;;;;;;40.30;20.25;;;;;;;-0.33;88.72;100672.40;1810150;77;21308;-70
2021/03/04 03:24:35;;;;;;;44.50;22.77;;;;;;;-0.28;88.77;100666.93;1791637;79;21846;-71
2021/03/04 03:27:03;;;;;;;47.60;22.93;;;;;;;-0.20;88.79;100664.69;1808356;79;21123;-71
2021/03/04 03:29:31;;;;;;;45.48;23.05;;;;;;;-0.11;88.83;100658.84;1786047;79;21194;-71
2021/03/04 03:31:59;;;;;;;42.20;21.17;;;;;;;-0.03;88.82;100656.12;1800500;79;21567;-71
2021/03/04 03:34:27;;;;;;;44.10;21.75;;;;;;;0.05;88.77;100651.25;1805430;77;21384;-71
2021/03/04 03:36:55;;;;;;;50.73;23.65;;;;;;;0.10;88.70;100647.08;1782546;79;21202;-71
2021/03/04 03:39:23;;;;;;;41.98;20.48;;;;;;;0.12;88.60;100646.38;1786165;79;21032;-71
2021/03/04 03:41:51;;;;;;;50.33;24.90;;;;;;;0.15;88.56;100642.57;1805143;79;21131;-70
2021/03/04 03:44:19;;;;;;;46.45;23.22;;;;;;;0.12;88.45;100633.25;1811746;79;21171;-71
2021/03/04 03:46:46;;;;;;;44.65;22.87;;;;;;;0.18;88.48;100636.44;1813160;79;21360;-70
2021/03/04 03:49:15;;;;;;;46.68;24.77;;;;;;;0.28;88.49;100632.20;1807890;79;21179;-71
2021/03/04 03:51:43;;;;;;;44.83;22.55;;;;;;;0.34;88.43;100633.27;1802493;79;22295;-71
2021/03/04 03:54:12;;;;;;;47.27;24.30;;;;;;;0.37;88.35;100627.13;1795954;77;21186;-71
2021/03/04 03:56:40;;;;;;;44.77;24.65;;;;;;;0.37;88.23;100615.31;1790686;79;21142;-70
2021/03/04 03:59:08;;;;;;;38.40;19.60;;;;;;;0.42;88.20;100614.73;1797127;79;21660;-71
2021/03/04 04:01:36;;;;;;;47.60;24.12;;;;;;;0.47;88.13;100604.48;1756319;79;21183;-71
2021/03/04 04:04:04;;;;;;;39.40;20.75;;;;;;;0.48;87.99;100610.04;1799854;77;21127;-71
2021/03/04 04:06:34;;;;;;;39.60;20.20;;;;;;;0.45;87.80;100602.53;1793824;79;21142;-71
2021/03/04 04:09:02;;;;;;;43.68;23.00;;;;;;;0.43;87.72;100597.48;1790388;79;21123;-71
2021/03/04 04:11:30;;;;;;;42.38;22.27;;;;;;;0.42;87.57;100597.15;1793094;77;21806;-71
2021/03/04 04:13:58;;;;;;;31.95;16.95;;;;;;;0.43;87.53;100590.11;1806673;79;21122;-71
2021/03/04 04:16:25;;;;;;;41.23;22.70;;;;;;;0.44;87.42;100585.15;1800884;77;21137;-70
2021/03/04 04:18:55;;;;;;;38.55;21.62;;;;;;;0.41;87.26;100573.70;1790405;79;21190;-71
2021/03/04 04:21:23;;;;;;;40.08;22.20;;;;;;;0.40;87.18;100574.72;1811052;77;21111;-71
2021/03/04 04:23:52;;;;;;;37.25;20.72;;;;;;;0.42;87.09;100555.61;1801072;78;21702;-70
2021/03/04 04:26:20;;;;;;;42.70;24.32;;;;;;;0.44;86.99;100553.62;1798959;79;21623;-71
2021/03/04 04:28:48;;;;;;;46.15;23.67;;;;;;;0.46;86.85;100551.59;1793524;79;21083;-70
2021/03/04 04:31:17;;;;;;;44.95;24.02;;;;;;;0.49;86.71;100536.77;1792883;79;21226;-72
2021/03/04 04:33:45;;;;;;;41.77;23.32;;;;;;;0.49;86.50;100531.50;1799310;78;21490;-72
2021/03/04 04:36:14;;;;;;;39.48;21.68;;;;;;;0.49;86.28;100531.50;1795431;77;21202;-71
2021/03/04 04:38:41;;;;;;;41.05;21.60;;;;;;;0.45;86.05;100525.82;1803930;79;21099;-72
2021/03/04 04:41:09;;;;;;;37.33;20.85;;;;;;;0.39;85.81;100526.58;1811293;79;21115;-71
2021/03/04 04:43:37;;;;;;;35.68;20.62;;;;;;;0.28;85.56;100517.11;1777435;79;21123;-71
2021/03/04 04:46:04;;;;;;;39.63;21.77;;;;;;;0.13;85.44;100524.58;1808302;79;21155;-71
2021/03/04 04:48:33;;;;;;;38.98;22.22;;;;;;;0.02;85.37;100527.70;1803953;79;21803;-71
2021/03/04 04:51:02;;;;;;;37.75;20.90;;;;;;;-0.06;85.27;100508.16;1808273;79;21193;-70
2021/03/04 04:53:32;;;;;;;40.00;22.30;;;;;;;-0.10;85.24;100497.22;1798677;79;21167;-70
2021/03/04 04:55:59;;;;;;;39.75;21.93;;;;;;;-0.13;85.12;100487.56;1801894;79;21167;-72
2021/03/04 04:58:27;;;;;;;40.40;21.65;;;;;;;-0.13;85.07;100494.13;1789221;79;21934;-71
2021/03/04 05:00:55;;;;;;;34.13;20.30;;;;;;;-0.15;85.00;100488.27;1801432;79;21440;-71
2021/03/04 05:03:22;;;;;;;39.40;21.80;;;;;;;-0.18;84.88;100490.77;1803541;77;21127;-71
2021/03/04 05:05:50;;;;;;;36.53;21.90;;;;;;;-0.19;84.81;100489.15;1800430;79;21179;-71
2021/03/04 05:08:18;;;;;;;38.28;21.90;;;;;;;-0.19;84.73;100485.72;1799415;79;21128;-70
2021/03/04 05:10:47;;;;;;;35.83;20.25;;;;;;;-0.20;84.67;100494.06;1790818;79;21194;-70
2021/03/04 05:13:14;;;;;;;36.77;21.52;;;;;;;-0.24;84.57;100491.00;1804349;79;21345;-70
2021/03/04 05:15:42;;;;;;;37.13;22.30;;;;;;;-0.26;84.55;100483.84;1794822;79;21207;-71
2021/03/04 05:18:10;;;;;;;38.33;21.35;;;;;;;-0.27;84.49;100490.57;1806338;77;21151;-70
2021/03/04 05:20:38;;;;;;;38.13;21.65;;;;;;;-0.30;84.47;100479.94;1803485;79;21275;-71
2021/03/04 05:23:06;;;;;;;39.83;22.20;;;;;;;-0.28;84.51;100477.95;1798217;79;21151;-71
2021/03/04 05:25:33;;;;;;;42.75;21.70;;;;;;;-0.25;84.47;100472.84;1792545;79;21193;-71
2021/03/04 05:28:01;;;;;;;36.65;21.37;;;;;;;-0.20;84.45;100472.26;1804670;79;21258;-71
2021/03/04 05:30:29;;;;;;;38.45;21.37;;;;;;;-0.16;84.39;100469.59;1795451;79;21131;-71
2021/03/04 05:32:57;;;;;;;37.98;21.70;;;;;;;-0.14;84.37;100466.26;1789437;77;21195;-71
2021/03/04 05:35:25;;;;;;;44.75;23.50;;;;;;;-0.11;84.33;100462.75;1792543;79;21167;-71
2021/03/04 05:37:53;;;;;;;33.95;18.77;;;;;;;-0.05;84.32;100463.81;1798563;77;21207;-71
2021/03/04 05:40:21;;;;;;;37.35;21.48;;;;;;;0.00;84.28;100458.83;1793946;77;21190;-71
2021/03/04 05:42:49;;;;;;;37.90;21.87;;;;;;;0.00;84.21;100454.89;1798061;77;21159;-71
2021/03/04 05:45:19;;;;;;;39.05;22.50;;;;;;;0.03;84.20;100449.23;1777492;79;21159;-71
2021/03/04 05:47:48;;;;;;;41.92;22.27;;;;;;;0.08;84.25;100442.91;1796302;79;21151;-71
2021/03/04 05:50:19;;;;;;;38.30;22.65;;;;;;;0.14;84.24;100434.28;1787487;79;21342;-71
2021/03/04 05:52:55;;;;;;;30.35;17.80;;;;;;;0.21;84.23;100435.12;1792186;79;21238;-70
2021/03/04 05:55:23;;;;;;;39.85;22.00;;;;;;;0.29;84.14;100425.47;1802001;79;21186;-70
2021/03/04 05:57:51;;;;;;;38.53;22.22;;;;;;;0.37;84.11;100423.52;1797795;79;21808;-71
2021/03/04 06:00:20;;;;;;;44.88;24.63;;;;;;;0.43;84.05;100424.56;1803500;79;21119;-70
2021/03/04 06:02:47;;;;;;;43.15;23.87;;;;;;;0.50;84.01;100414.90;1792716;77;22270;-71
2021/03/04 06:05:16;;;;;;;45.08;23.25;;;;;;;0.62;83.97;100414.63;1800900;79;21262;-70
2021/03/04 06:07:45;;;;;;;41.13;22.30;;;;;;;0.73;83.93;100409.86;1779492;79;21198;-70
2021/03/04 06:10:14;;;;;;;40.28;22.48;;;;;;;0.84;83.86;100408.77;1795427;79;21563;-70
2021/03/04 06:12:43;;;;;;;42.75;23.62;;;;;;;0.94;83.79;100409.21;1792433;79;21571;-70
2021/03/04 06:15:12;;;;;;;39.92;22.27;;;;;;;1.05;83.72;100405.70;1796913;77;21331;-71
2021/03/04 06:17:41;;;;;;;36.13;20.70;;;;;;;1.15;83.60;100402.18;1800753;79;21179;-70
2021/03/04 06:20:11;;;;;;;40.95;23.80;;;;;;;1.24;83.46;100400.99;1788339;79;21171;-70
2021/03/04 06:22:45;;;;;;;42.43;21.57;;;;;;;1.32;83.29;100390.80;1795868;79;21206;-70
2021/03/04 06:25:14;;;;;;;43.05;23.65;;;;;;;1.38;83.10;100388.19;1801060;77;21151;-70
2021/03/04 06:27:45;;;;;;;37.05;21.23;;;;;;;1.47;82.97;100376.13;1794730;79;21374;-71
2021/03/04 06:30:15;;;;;;;39.73;23.38;;;;;;;1.57;82.75;100376.55;1791444;79;21195;-69
2021/03/04 06:33:01;;;;;;;37.23;22.25;;;;;;;1.64;82.33;100372.08;1803948;79;21111;-72
2021/03/04 06:35:33;;;;;;;39.10;23.40;;;;;;;1.70;82.03;100369.95;1797544;77;21638;-70
2021/03/04 06:38:21;;;;;;;38.48;19.70;;;;;;;1.81;81.74;100375.11;1809481;79;21644;-71
2021/03/04 06:40:51;;;;;;;36.60;21.65;;;;;;;1.92;81.35;100357.39;1803017;77;22629;-71
2021/03/04 06:43:22;;;;;;;;;;;;;;;2.03;81.04;100356.75;1811857;79;21147;-71
2021/03/04 06:45:50;;;;;;;42.40;23.20;;;;;;;2.11;80.55;100347.33;1794348;77;20602;-70
2021/03/04 06:48:21;;;;;;;44.27;24.72;;;;;;;2.21;80.30;100340.83;1805421;79;21390;-70
2021/03/04 06:50:52;;;;;;;40.50;23.98;;;;;;;2.31;80.00;100327.51;1799083;79;21631;-70
2021/03/04 06:53:22;;;;;;;39.48;23.18;;;;;;;2.42;79.64;100320.77;1770070;80;21365;-69
2021/03/04 06:56:04;;;;;;;37.65;22.52;;;;;;;2.57;79.48;100318.69;1800191;79;21226;-69
2021/03/04 06:58:37;;;;;;;40.40;24.82;;;;;;;2.71;79.04;100318.11;1792355;77;21218;-70
2021/03/04 07:01:15;;;;;;;44.63;23.77;;;;;;;2.82;78.27;100309.51;1799970;79;21165;-69
2021/03/04 07:03:50;;;;;;;40.55;23.02;;;;;;;2.94;78.12;100314.93;1796032;79;21179;-69
2021/03/04 07:06:21;;;;;;;39.95;22.40;;;;;;;3.09;77.60;100306.70;1794650;79;21205;-70
2021/03/04 07:08:51;;;;;;;41.50;24.92;;;;;;;3.19;76.62;100304.42;1797028;77;21607;-71
2021/03/04 07:11:25;;;;;;;41.55;23.45;;;;;;;3.29;76.23;100299.95;1795018;79;21134;-71
2021/03/04 07:13:53;;;;;;;38.23;22.27;;;;;;;3.39;75.94;100290.23;1793750;79;21485;-71
2021/03/04 07:19:26;;;;;;;38.77;22.67;;;;;;;3.70;74.57;100281.44;1804766;77;22526;-70
2021/03/04 07:21:54;;;;;;;41.00;22.85;;;;;;;3.75;74.37;100282.89;1782882;79;21191;-70
2021/03/04 07:24:22;;;;;;;43.13;23.67;;;;;;;3.86;73.48;100287.47;1782937;78;21209;-70
2021/03/04 07:26:49;;;;;;;38.90;22.27;;;;;;;3.95;73.15;100276.11;1771997;79;21497;-70
2021/03/04 07:29:17;;;;;;;42.20;25.00;;;;;;;4.05;72.91;100262.36;1787465;78;21666;-70
2021/03/04 07:31:46;;;;;;;42.27;22.93;;;;;;;4.16;72.48;100258.98;1787555;78;21220;-71
2021/03/04 07:34:17;;;;;;;39.58;23.38;;;;;;;4.28;71.91;100254.58;1776087;79;21572;-72
2021/03/04 07:36:50;;;;;;;38.25;23.25;;;;;;;4.40;71.69;100254.09;1783957;78;21368;-72
2021/03/04 07:39:30;;;;;;;36.58;22.60;;;;;;;4.54;70.93;100248.62;1779064;79;21215;-72
2021/03/04 07:41:58;;;;;;;39.88;23.47;;;;;;;4.67;70.96;100245.80;1787472;78;21195;-71
2021/03/04 07:44:29;;;;;;;40.73;23.52;;;;;;;4.81;70.40;100240.63;1783236;78;21151;-71
2021/03/04 07:47:00;;;;;;;41.90;23.55;;;;;;;4.93;69.72;100232.17;1780912;79;21394;-70
2021/03/04 07:49:39;;;;;;;41.45;23.67;;;;;;;5.04;69.10;100219.20;1778620;79;22176;-75
2021/03/04 07:52:23;;;;;;;36.63;22.20;;;;;;;5.15;68.64;100231.64;1783668;78;21203;-71
2021/03/04 07:54:53;;;;;;;33.78;20.97;;;;;;;5.25;68.16;100227.91;1782384;79;21176;-70
2021/03/04 07:57:23;;;;;;;38.38;23.15;;;;;;;5.29;67.35;100206.54;1782121;78;21235;-70
2021/03/04 08:00:02;;;;;;;36.60;22.98;;;;;;;5.35;67.27;100203.50;1772882;79;21635;-70
2021/03/04 08:02:35;;;;;;;35.40;21.17;;;;;;;5.43;66.98;100194.38;1782956;78;22598;-71
2021/03/04 08:05:17;;;;;;;37.30;20.57;;;;;;;5.54;66.69;100182.98;1774362;78;21239;-68
2021/03/04 08:07:50;;;;;;;37.73;21.52;;;;;;;5.65;66.22;100190.91;1780367;78;21077;-69
2021/03/04 08:10:22;;;;;;;35.10;21.02;;;;;;;5.78;66.18;100182.41;1769183;79;21164;-70
2021/03/04 08:15:43;;;;;;;38.57;23.90;;;;;;;5.99;65.01;100181.83;1809802;79;23315;-69
2021/03/04 08:18:19;;;;;;;33.28;20.82;;;;;;;5.99;64.74;100177.84;1797168;77;21221;-72
2021/03/04 08:20:48;;;;;;;34.05;21.55;;;;;;;6.05;64.61;100170.25;1791709;79;21820;-69
2021/03/04 08:23:17;;;;;;;37.17;22.70;;;;;;;6.09;64.62;100162.66;1799097;79;21155;-71
2021/03/04 08:25:45;;;;;;;35.60;20.82;;;;;;;6.15;64.41;100156.38;1800056;77;21176;-69
2021/03/04 08:28:29;;;;;;;37.33;23.07;;;;;;;6.23;64.38;100157.34;1794771;77;21151;-68
2021/03/04 08:31:11;;;;;;;34.38;21.68;;;;;;;6.32;63.70;100155.92;1807383;79;21187;-72
2021/03/04 08:33:38;;;;;;;;;;;;;;;6.42;63.96;100151.84;1801778;77;21393;-70
2021/03/04 08:36:06;;;;;;;37.28;22.80;;;;;;;6.55;63.26;100138.27;1800741;79;20266;-71
2021/03/04 08:38:40;;;;;;;39.65;23.60;;;;;;;6.58;63.08;100138.59;1790983;77;21253;-70
2021/03/04 08:41:09;;;;;;;33.92;21.60;;;;;;;6.61;62.87;100137.80;1792231;79;21151;-70
2021/03/04 08:43:38;;;;;;;38.75;23.83;;;;;;;6.66;62.76;100133.92;1789049;79;21207;-71
2021/03/04 08:46:07;;;;;;;34.50;22.10;;;;;;;6.67;62.31;100134.99;1791736;79;21442;-69
2021/03/04 08:48:46;;;;;;;38.75;23.87;;;;;;;6.69;62.58;100126.80;1794360;77;21238;-69
2021/03/04 08:51:17;;;;;;;36.03;21.12;;;;;;;6.73;62.15;100123.94;1796277;79;21159;-69
2021/03/04 08:53:46;;;;;;;36.45;22.58;;;;;;;6.77;62.39;100126.39;1784981;79;21167;-70
2021/03/04 08:56:15;;;;;;;36.13;22.40;;;;;;;6.88;61.93;100120.70;1781807;79;21198;-70
2021/03/04 08:58:43;;;;;;;36.73;22.17;;;;;;;6.92;61.62;100108.05;1794556;77;21193;-70
2021/03/04 09:01:13;;;;;;;33.63;21.75;;;;;;;6.95;61.53;100112.06;1788555;77;21229;-69
2021/03/04 09:03:43;;;;;;;38.75;22.82;;;;;;;7.01;61.44;100105.26;1782870;79;22310;-71
2021/03/04 09:06:16;;;;;;;35.90;23.18;;;;;;;7.10;61.26;100110.94;1800034;77;21223;-71
2021/03/04 09:08:48;;;;;;;36.03;22.95;;;;;;;7.17;61.28;100116.91;1774242;77;21195;-70
2021/03/04 09:11:36;;;;;;;37.88;23.18;;;;;;;7.28;61.00;100097.38;1798444;79;21360;-69
2021/03/04 09:14:08;;;;;;;31.35;19.98;;;;;;;7.44;61.20;100102.37;1791777;77;21648;-70
2021/03/04 09:16:41;;;;;;;36.55;22.58;;;;;;;7.62;60.59;100094.59;1797277;77;21832;-69
2021/03/04 09:19:14;;;;;;;34.33;20.75;;;;;;;7.73;59.95;100084.37;1794665;77;21249;-70
2021/03/04 09:21:42;;;;;;;35.50;22.98;;;;;;;7.74;59.45;100080.65;1788798;79;21162;-69
2021/03/04 09:24:12;;;;;;;34.30;21.57;;;;;;;7.75;59.65;100074.27;1789063;77;21463;-71
2021/03/04 09:26:43;;;;;;;32.83;21.85;;;;;;;7.82;59.21;100081.25;1790199;77;21176;-71
2021/03/04 09:29:10;;;;;;;38.42;24.25;;;;;;;7.81;59.13;100065.83;1788168;78;21182;-70
2021/03/04 09:31:53;;;;;;;35.95;22.40;;;;;;;7.80;59.29;100056.76;1794359;77;21172;-71
2021/03/04 09:34:45;;;;;;;37.63;23.75;;;;;;;7.82;58.95;100044.03;1800238;79;21183;-70
2021/03/04 09:37:22;;;;;;;33.02;21.73;;;;;;;7.77;59.26;100040.80;1767168;79;21751;-71
2021/03/04 09:39:51;;;;;;;34.58;22.00;;;;;;;7.78;59.00;100036.28;1763506;79;21663;-71
2021/03/04 09:42:21;;;;;;;38.80;23.95;;;;;;;7.80;59.28;100022.20;1795101;78;21174;-70
2021/03/04 09:44:57;;;;;;;34.85;21.85;;;;;;;7.88;58.87;100024.42;1803608;77;21208;-71
2021/03/04 09:47:29;;;;;;;32.80;21.50;;;;;;;7.94;58.82;100028.73;1767945;79;21136;-74
2021/03/04 09:50:04;;;;;;;34.70;22.17;;;;;;;8.03;59.03;100025.06;1762827;79;21283;-71
2021/03/04 09:52:33;;;;;;;33.75;21.10;;;;;;;8.17;58.71;100027.06;1777306;79;21345;-71
2021/03/04 09:55:11;;;;;;;35.98;23.55;;;;;;;8.29;58.49;100018.09;1758786;79;21707;-72
2021/03/04 09:57:41;;;;;;;38.98;24.67;;;;;;;8.38;58.43;100005.42;1773414;79;21184;-71
2021/03/04 10:00:23;;;;;;;33.88;21.50;;;;;;;8.49;57.81;100001.00;1796315;77;21244;-71
2021/03/04 10:02:52;;;;;;;;;;;;;;;8.62;57.88;99999.72;1798111;77;21364;-70
2021/03/04 10:05:25;;;;;;;36.13;22.80;;;;;;;8.73;56.90;100000.60;1795408;77;20862;-72
2021/03/04 10:07:59;;;;;;;36.40;22.73;;;;;;;8.71;56.83;99993.39;1802662;77;21537;-71
2021/03/04 10:10:26;;;;;;;32.25;20.50;;;;;;;8.69;56.80;99987.80;1793558;77;21933;-71
2021/03/04 10:13:01;;;;;;;35.83;23.87;;;;;;;8.72;56.90;99983.00;1788398;77;21159;-71
2021/03/04 10:15:38;;;;;;;37.63;23.15;;;;;;;8.77;56.94;99967.06;1791993;77;21423;-71
2021/03/04 10:18:12;;;;;;;35.38;23.85;;;;;;;8.82;56.40;99965.23;1798129;77;21635;-70
2021/03/04 10:20:45;;;;;;;35.23;22.27;;;;;;;8.82;56.26;99962.58;1790640;77;21183;-69
2021/03/04 10:23:15;;;;;;;36.13;23.18;;;;;;;8.86;56.69;99954.86;1792309;79;21152;-72
2021/03/04 10:25:44;;;;;;;36.70;22.20;;;;;;;8.99;56.35;99951.72;1800828;79;21191;-71
2021/03/04 10:28:12;;;;;;;36.00;23.65;;;;;;;9.04;55.75;99954.92;1798091;79;21653;-70
2021/03/04 10:30:41;;;;;;;36.10;23.32;;;;;;;9.05;55.96;99941.86;1771293;79;21708;-69
2021/03/04 10:33:11;;;;;;;35.00;22.87;;;;;;;9.07;55.58;99950.41;1773800;78;21191;-71
2021/03/04 10:35:39;;;;;;;34.48;22.15;;;;;;;9.09;55.69;99941.63;1774850;80;21217;-69
2021/03/04 10:38:09;;;;;;;34.92;22.90;;;;;;;9.08;55.45;99934.17;1764202;78;21187;-69
2021/03/04 10:40:36;;;;;;;32.40;21.60;;;;;;;9.10;55.77;99928.56;1772576;78;21627;-69
2021/03/04 10:43:05;;;;;;;33.42;21.97;;;;;;;9.15;55.47;99917.94;1782947;78;21741;-70
2021/03/04 10:45:32;;;;;;;32.20;21.45;;;;;;;9.19;55.51;99908.35;1776860;78;21722;-70
2021/03/04 10:48:03;;;;;;;33.13;21.68;;;;;;;9.23;55.30;99909.41;1778578;79;21204;-69
2021/03/04 10:50:36;;;;;;;34.75;23.42;;;;;;;9.28;55.38;99889.45;1768387;79;21196;-71
2021/03/04 10:53:04;;;;;;;31.85;20.27;;;;;;;9.36;54.97;99893.45;1791742;79;27146;-71
2021/03/04 10:55:44;;;;;;;34.67;22.60;;;;;;;9.43;54.72;99899.31;1847831;77;22752;-70
2021/03/04 10:58:16;;;;;;;38.88;23.45;;;;;;;9.40;54.90;99893.18;1814606;77;21212;-69
2021/03/04 11:00:43;;;;;;;35.75;22.80;;;;;;;9.46;54.71;99876.67;1827446;77;21921;-70
2021/03/04 11:03:16;;;;;;;33.10;21.45;;;;;;;9.51;54.55;99879.32;1788526;78;21191;-73
2021/03/04 11:05:48;;;;;;;33.35;21.87;;;;;;;9.58;54.07;99874.01;1832381;76;21179;-74
2021/03/04 11:08:17;;;;;;;34.78;23.07;;;;;;;9.61;53.93;99870.02;1817467;78;21187;-70
2021/03/04 11:10:47;;;;;;;33.30;21.25;;;;;;;9.60;53.48;99878.52;1821516;78;21111;-70
2021/03/04 11:13:16;;;;;;;34.20;23.00;;;;;;;9.62;53.78;99876.40;1839868;77;22092;-70
2021/03/04 11:15:44;;;;;;;32.77;21.37;;;;;;;9.72;53.46;99860.14;1814444;78;21881;-69
2021/03/04 11:18:12;;;;;;;30.97;20.33;;;;;;;9.78;53.69;99854.53;1797054;78;21806;-69
2021/03/04 11:20:43;;;;;;;34.60;23.20;;;;;;;9.89;53.18;99850.52;1816721;77;21780;-70
2021/03/04 11:23:10;;;;;;;34.17;22.57;;;;;;;9.90;52.43;99848.89;1806790;77;21828;-70
2021/03/04 11:25:40;;;;;;;32.40;22.27;;;;;;;9.86;52.87;99840.64;1828241;77;21186;-69
2021/03/04 11:28:09;;;;;;;33.70;22.93;;;;;;;9.90;53.08;99843.56;1853578;75;21622;-69
2021/03/04 11:30:37;;;;;;;35.70;23.30;;;;;;;9.91;52.46;99838.52;1811534;77;21179;-70
2021/03/04 11:33:07;;;;;;;33.43;21.53;;;;;;;9.88;52.79;99843.05;1852672;76;21383;-69
2021/03/04 11:35:36;;;;;;;35.70;22.47;;;;;;;9.95;52.57;99835.56;1823666;76;21221;-71
2021/03/04 11:38:04;;;;;;;35.13;22.57;;;;;;;9.92;52.04;99850.77;1810030;77;21343;-73